Tifton, Georgia
Current Conditions -  °F | °C
As of 11:50 AM on Thursday 30 Oct 2014 (Local Time) from KTMA Reporting Station
Clear Clear  
Wind Chill: 62°   Ceiling: Unl
Heat Index: 62°   Visibility: 10mi
Dew Point: 47°   Wind: 7mph
Humidity: 58%   Direction: 340°NNW
Pressure: 30.03"   Gusts: NA
Location:  31.45°N, 83.51°W
Report Text: KTMA 301550Z AUTO 34006KT 10SM CLR 17/09 A3003 RMK AO2 T01690086
Loading
Personal Weather Stations






























Interactive Weather Map
Tropical Storm Tracking
New forecast layout! Learn more

10-Day Weather Forecast

Advertisements
Track Severe Weather on mobile